Gaschem Orca — D5NS8 — position and weather

sailwx.info

Track history (hours):
 
Tides and Currents Weather Stations Pressure Air Temp Water Temp Dewpoint Dewpoint Depression Visibility Wind Speed Wind Dir Waves Ship Positions

Gaschem Orca

Last reported at 2017-Nov-18 10:16 UTC. Time now 2017-Nov-22 16:42 UTC.
Position N 36°25' W 027°24'.

Length 189 m; draft 7.1 m.

Type: Ship. MMSI: 636018002.

Date/timePositionNaut miles runAvg speedWind from/ knotsBaromVisibWave heightAir tempDewpointWater temp
2017-Nov-18 10:16N 36°25' W 027°24'617.4
2017-Nov-18 09:54N 36°30' W 027°18'717.3
2017-Nov-18 09:30N 36°34' W 027°12'817.0
2017-Nov-18 09:00N 36°40' W 027°04'917.1
2017-Nov-18 08:30N 36°46' W 026°56'917.1
2017-Nov-18 08:00N 36°51' W 026°48'917.1
2017-Nov-18 07:30N 36°57' W 026°40'817.0
2017-Nov-18 07:00N 37°03' W 026°32'917.2
2017-Nov-18 06:30N 37°08' W 026°24'917.2
2017-Nov-18 06:00N 37°14' W 026°16'917.7
2017-Nov-18 05:30N 37°20' W 026°08'917.9
2017-Nov-18 05:00N 37°26' W 025°60'8316.2
2017-Nov-17 23:52N 38°11' W 024°31'617.4
2017-Nov-17 23:30N 38°15' W 024°25'  
2017-Nov-15 18:45N 47°49' W 008°09'517.3
2017-Nov-15 18:29N 47°52' W 008°03'1017.6
2017-Nov-15 17:54N 47°59' W 007°51'817.8
2017-Nov-15 17:27N 48°04' W 007°42'817.7
2017-Nov-15 17:00N 48°09' W 007°33'1117.4
2017-Nov-15 16:23N 48°16' W 007°21'917.4
2017-Nov-15 15:53N 48°21' W 007°10'717.0
2017-Nov-15 15:29N 48°26' W 007°02'816.8
2017-Nov-15 15:00N 48°31' W 006°53'816.5
2017-Nov-15 14:30N 48°36' W 006°43'816.5
2017-Nov-15 14:00N 48°41' W 006°34'816.2
2017-Nov-15 13:30N 48°46' W 006°24'816.2
2017-Nov-15 13:00N 48°51' W 006°14'816.2
2017-Nov-15 12:30N 48°57' W 006°05'816.4
2017-Nov-15 11:59N 49°02' W 005°55'816.5
2017-Nov-15 11:29N 49°06' W 005°44'916.7
2017-Nov-15 10:58N 49°09' W 005°32'1016.1
2017-Nov-15 10:23N 49°13' W 005°19'6317.1
2017-Nov-15 06:40N 49°42' W 003°51'317.4
2017-Nov-15 06:30N 49°43' W 003°48'917.1
2017-Nov-15 06:00N 49°47' W 003°36'916.5
2017-Nov-15 05:29N 49°50' W 003°24'1615.8
2017-Nov-15 04:30N 49°55' W 003°00'815.7
2017-Nov-15 03:59N 49°58' W 002°49'815.7
2017-Nov-15 03:30N 50°01' W 002°38'1216.2
2017-Nov-15 02:47N 50°04' W 002°20'516.7
2017-Nov-15 02:30N 50°04' W 002°13'917.3
2017-Nov-15 02:00N 50°06' W 002°00'918.2
2017-Nov-15 01:30N 50°09' W 001°47'1019.1
2017-Nov-15 01:00N 50°11' W 001°32'1019.4
2017-Nov-15 00:30N 50°14' W 001°18'1119.9
2017-Nov-14 23:58N 50°17' W 001°01'2319.3
2017-Nov-14 22:47N 50°23' W 000°27'518.5
2017-Nov-14 22:30N 50°24' W 000°19'918.0
2017-Nov-14 22:00N 50°27' W 000°06'1017.6
2017-Nov-14 21:26N 50°29' E 000°09'717.1
2017-Nov-14 21:00N 50°32' E 000°20'916.8
2017-Nov-14 20:30N 50°35' E 000°33'816.5
2017-Nov-14 20:00N 50°39' E 000°44'816.4
2017-Nov-14 19:30N 50°43' E 000°55'816.4
2017-Nov-14 19:00N 50°48' E 001°05'916.5
2017-Nov-14 18:30N 50°53' E 001°16'917.8
2017-Nov-14 18:00N 50°60' E 001°25'1019.1
2017-Nov-14 17:30N 51°06' E 001°35'1019.2
2017-Nov-14 17:01N 51°13' E 001°46'1019.1
2017-Nov-14 16:30N 51°21' E 001°54'918.5
2017-Nov-14 16:00N 51°29' E 002°03'917.9
2017-Nov-14 15:30N 51°35' E 002°13'917.4
2017-Nov-14 15:00N 51°42' E 002°23'16813.8
2017-Nov-14 02:51N 54°17' E 000°37'617.7
2017-Nov-14 02:30N 54°20' E 000°28'917.6
2017-Nov-14 02:00N 54°25' E 000°15'918.0
2017-Nov-14 01:30N 54°29' E 000°01'918.1
2017-Nov-14 01:00N 54°33' W 000°13'918.0
2017-Nov-14 00:30N 54°38' W 000°26'1117.3
2017-Nov-13 23:52N 54°40' W 000°45'616.4
2017-Nov-13 23:30N 54°40' W 000°55'8 0.2
2017-Nov-12 10:48N 54°39' W 001°08'3 8.6
2017-Nov-12 10:24N 54°42' W 001°04'2 6.0
2017-Nov-12 10:00N 54°44' W 001°04'1 1.4
2017-Nov-12 09:30N 54°44' W 001°03'713.3
2017-Nov-12 09:00N 54°50' W 001°08'815.2
2017-Nov-12 08:31N 54°58' W 001°08'815.3
2017-Nov-12 08:00N 55°06' W 001°09'816.3
2017-Nov-12 07:30N 55°14' W 001°09'917.4
2017-Nov-12 07:01N 55°22' W 001°10'1017.0
2017-Nov-12 06:27N 55°32' W 001°10'12416.3
2017-Nov-11 22:50N 57°36' W 001°18'516.5
2017-Nov-11 22:31N 57°40' W 001°25'916.7
2017-Nov-11 21:57N 57°47' W 001°36'4816.7
2017-Nov-11 19:04N 58°24' W 002°35'115.6
2017-Nov-11 19:00N 58°25' W 002°36'815.6
2017-Nov-11 18:30N 58°31' W 002°45'816.3
2017-Nov-11 18:01N 58°37' W 002°56'817.0
2017-Nov-11 17:31N 58°43' W 003°06'816.3
2017-Nov-11 17:00N 58°44' W 003°22'816.4
2017-Nov-11 16:30N 58°44' W 003°38'816.0
2017-Nov-11 16:00N 58°44' W 003°53'816.1
2017-Nov-11 15:31N 58°44' W 004°08'  
Track history (hours):
 
Tides and Currents Weather Stations Pressure Air Temp Water Temp Dewpoint Dewpoint Depression Visibility Wind Speed Wind Dir Waves Ship Positions

Gaschem Orca

Last reported at 2017-Nov-18 10:16 UTC. Time now 2017-Nov-22 16:42 UTC.
Position N 36°25' W 027°24'.

Length 189 m; draft 7.1 m.

Type: Ship. MMSI: 636018002.

Date/timePositionNaut miles runAvg speedWind from/ knotsBaromVisibWave heightAir tempDewpointWater temp
2017-Nov-18 10:16N 36°25' W 027°24'617.4
2017-Nov-18 09:54N 36°30' W 027°18'717.3
2017-Nov-18 09:30N 36°34' W 027°12'817.0
2017-Nov-18 09:00N 36°40' W 027°04'917.1
2017-Nov-18 08:30N 36°46' W 026°56'917.1
2017-Nov-18 08:00N 36°51' W 026°48'917.1
2017-Nov-18 07:30N 36°57' W 026°40'817.0
2017-Nov-18 07:00N 37°03' W 026°32'917.2
2017-Nov-18 06:30N 37°08' W 026°24'917.2
2017-Nov-18 06:00N 37°14' W 026°16'917.7
2017-Nov-18 05:30N 37°20' W 026°08'917.9
2017-Nov-18 05:00N 37°26' W 025°60'8316.2
2017-Nov-17 23:52N 38°11' W 024°31'617.4
2017-Nov-17 23:30N 38°15' W 024°25'  
2017-Nov-15 18:45N 47°49' W 008°09'517.3
2017-Nov-15 18:29N 47°52' W 008°03'1017.6
2017-Nov-15 17:54N 47°59' W 007°51'817.8
2017-Nov-15 17:27N 48°04' W 007°42'817.7
2017-Nov-15 17:00N 48°09' W 007°33'1117.4
2017-Nov-15 16:23N 48°16' W 007°21'917.4
2017-Nov-15 15:53N 48°21' W 007°10'717.0
2017-Nov-15 15:29N 48°26' W 007°02'816.8
2017-Nov-15 15:00N 48°31' W 006°53'816.5
2017-Nov-15 14:30N 48°36' W 006°43'816.5
2017-Nov-15 14:00N 48°41' W 006°34'816.2
2017-Nov-15 13:30N 48°46' W 006°24'816.2
2017-Nov-15 13:00N 48°51' W 006°14'816.2
2017-Nov-15 12:30N 48°57' W 006°05'816.4
2017-Nov-15 11:59N 49°02' W 005°55'816.5
2017-Nov-15 11:29N 49°06' W 005°44'916.7
2017-Nov-15 10:58N 49°09' W 005°32'1016.1
2017-Nov-15 10:23N 49°13' W 005°19'6317.1
2017-Nov-15 06:40N 49°42' W 003°51'317.4
2017-Nov-15 06:30N 49°43' W 003°48'917.1
2017-Nov-15 06:00N 49°47' W 003°36'916.5
2017-Nov-15 05:29N 49°50' W 003°24'1615.8
2017-Nov-15 04:30N 49°55' W 003°00'815.7
2017-Nov-15 03:59N 49°58' W 002°49'815.7
2017-Nov-15 03:30N 50°01' W 002°38'1216.2
2017-Nov-15 02:47N 50°04' W 002°20'516.7
2017-Nov-15 02:30N 50°04' W 002°13'917.3
2017-Nov-15 02:00N 50°06' W 002°00'918.2
2017-Nov-15 01:30N 50°09' W 001°47'1019.1
2017-Nov-15 01:00N 50°11' W 001°32'1019.4
2017-Nov-15 00:30N 50°14' W 001°18'1119.9
2017-Nov-14 23:58N 50°17' W 001°01'2319.3
2017-Nov-14 22:47N 50°23' W 000°27'518.5
2017-Nov-14 22:30N 50°24' W 000°19'918.0
2017-Nov-14 22:00N 50°27' W 000°06'1017.6
2017-Nov-14 21:26N 50°29' E 000°09'717.1
2017-Nov-14 21:00N 50°32' E 000°20'916.8
2017-Nov-14 20:30N 50°35' E 000°33'816.5
2017-Nov-14 20:00N 50°39' E 000°44'816.4
2017-Nov-14 19:30N 50°43' E 000°55'816.4
2017-Nov-14 19:00N 50°48' E 001°05'916.5
2017-Nov-14 18:30N 50°53' E 001°16'917.8
2017-Nov-14 18:00N 50°60' E 001°25'1019.1
2017-Nov-14 17:30N 51°06' E 001°35'1019.2
2017-Nov-14 17:01N 51°13' E 001°46'1019.1
2017-Nov-14 16:30N 51°21' E 001°54'918.5
2017-Nov-14 16:00N 51°29' E 002°03'917.9
2017-Nov-14 15:30N 51°35' E 002°13'917.4
2017-Nov-14 15:00N 51°42' E 002°23'16813.8
2017-Nov-14 02:51N 54°17' E 000°37'617.7
2017-Nov-14 02:30N 54°20' E 000°28'917.6
2017-Nov-14 02:00N 54°25' E 000°15'918.0
2017-Nov-14 01:30N 54°29' E 000°01'918.1
2017-Nov-14 01:00N 54°33' W 000°13'918.0
2017-Nov-14 00:30N 54°38' W 000°26'1117.3
2017-Nov-13 23:52N 54°40' W 000°45'616.4
2017-Nov-13 23:30N 54°40' W 000°55'8 0.2
2017-Nov-12 10:48N 54°39' W 001°08'3 8.6
2017-Nov-12 10:24N 54°42' W 001°04'2 6.0
2017-Nov-12 10:00N 54°44' W 001°04'1 1.4
2017-Nov-12 09:30N 54°44' W 001°03'713.3
2017-Nov-12 09:00N 54°50' W 001°08'815.2
2017-Nov-12 08:31N 54°58' W 001°08'815.3
2017-Nov-12 08:00N 55°06' W 001°09'816.3
2017-Nov-12 07:30N 55°14' W 001°09'917.4
2017-Nov-12 07:01N 55°22' W 001°10'1017.0
2017-Nov-12 06:27N 55°32' W 001°10'12416.3
2017-Nov-11 22:50N 57°36' W 001°18'516.5
2017-Nov-11 22:31N 57°40' W 001°25'916.7
2017-Nov-11 21:57N 57°47' W 001°36'4816.7
2017-Nov-11 19:04N 58°24' W 002°35'115.6
2017-Nov-11 19:00N 58°25' W 002°36'815.6
2017-Nov-11 18:30N 58°31' W 002°45'816.3
2017-Nov-11 18:01N 58°37' W 002°56'817.0
2017-Nov-11 17:31N 58°43' W 003°06'816.3
2017-Nov-11 17:00N 58°44' W 003°22'816.4
2017-Nov-11 16:30N 58°44' W 003°38'816.0
2017-Nov-11 16:00N 58°44' W 003°53'816.1
2017-Nov-11 15:31N 58°44' W 004°08'  

Dump ship's entire track history